createdAt,value
2022-10-11T00:00:10.539Z,5.45
2022-10-11T00:03:05.575Z,5.50
2022-10-11T00:05:49.785Z,5.63
2022-10-11T00:08:31.546Z,5.63
2022-10-11T00:11:12.855Z,5.45
2022-10-11T00:13:53.917Z,4.93
2022-10-11T00:16:41.529Z,5.38
2022-10-11T00:19:23.816Z,5.63
2022-10-11T00:22:04.608Z,5.30
2022-10-11T00:24:45.988Z,5.70
2022-10-11T00:27:27.425Z,5.72
2022-10-11T00:30:10.750Z,5.07
2022-10-11T00:32:51.751Z,4.85
2022-10-11T00:35:33.123Z,5.38
2022-10-11T00:38:14.578Z,4.72
2022-10-11T00:40:55.988Z,4.80
2022-10-11T00:43:38.498Z,5.60
2022-10-11T00:46:32.149Z,4.38
2022-10-11T00:49:37.188Z,4.82
2022-10-11T00:52:29.077Z,5.05
2022-10-11T00:55:14.266Z,5.13
2022-10-11T00:57:57.766Z,6.97
2022-10-11T01:00:38.547Z,5.53
2022-10-11T01:03:24.896Z,6.72
2022-10-11T01:06:05.418Z,6.13
2022-10-11T01:08:46.773Z,6.07
2022-10-11T01:11:31.109Z,6.30
2022-10-11T01:14:40.510Z,6.07
2022-10-11T01:17:27.621Z,6.90
2022-10-11T01:20:30.987Z,7.53
2022-10-11T01:24:09.050Z,7.22
2022-10-11T01:27:39.847Z,7.10
2022-10-11T01:30:28.344Z,7.05
2022-10-11T01:33:24.541Z,7.40
2022-10-11T01:36:29.790Z,7.60
2022-10-11T01:39:31.278Z,7.50
2022-10-11T01:42:15.966Z,7.25
2022-10-11T01:44:58.335Z,7.88
2022-10-11T01:47:45.909Z,7.70
2022-10-11T01:50:43.967Z,8.00
2022-10-11T01:53:45.232Z,9.75
2022-10-11T01:56:49.517Z,8.52
2022-10-11T01:59:44.801Z,8.38
2022-10-11T02:02:54.187Z,8.23
2022-10-11T02:05:49.360Z,9.10
2022-10-11T02:08:45.711Z,9.77
2022-10-11T02:11:33.073Z,9.45
2022-10-11T02:14:19.754Z,9.68
2022-10-11T02:17:07.606Z,10.98
2022-10-11T02:19:52.774Z,9.77
2022-10-11T02:22:38.845Z,10.95
2022-10-11T02:25:25.629Z,12.63
2022-10-11T02:28:12.329Z,10.55
2022-10-11T02:30:55.055Z,12.10
2022-10-11T02:33:49.334Z,13.45
2022-10-11T02:36:40.046Z,11.70
2022-10-11T02:39:28.575Z,12.70
2022-10-11T02:42:23.577Z,12.25
2022-10-11T02:45:11.847Z,12.13
2022-10-11T02:47:53.593Z,12.40
2022-10-11T02:50:34.298Z,11.50
2022-10-11T02:53:15.638Z,12.27
2022-10-11T02:55:57.587Z,13.80
2022-10-11T02:58:41.393Z,13.38
2022-10-11T03:01:23.138Z,12.20
2022-10-11T03:04:04.445Z,13.93
2022-10-11T03:06:55.020Z,14.63
2022-10-11T03:09:35.203Z,12.80
2022-10-11T03:12:16.833Z,14.48
2022-10-11T03:14:58.240Z,13.50
2022-10-11T03:17:39.385Z,15.02
2022-10-11T03:20:27.331Z,13.30
2022-10-11T03:23:20.564Z,13.88
2022-10-11T03:26:10.642Z,14.27
2022-10-11T03:29:01.427Z,14.23
2022-10-11T03:31:44.743Z,14.30
2022-10-11T03:34:26.302Z,14.02
2022-10-11T03:37:16.652Z,15.07
2022-10-11T03:40:00.142Z,14.93
2022-10-11T03:42:41.777Z,16.10
2022-10-11T03:45:23.086Z,16.55
2022-10-11T03:48:08.834Z,15.98
2022-10-11T03:50:49.898Z,16.42
2022-10-11T03:53:30.504Z,17.85
2022-10-11T03:56:12.238Z,17.25
2022-10-11T03:58:56.417Z,15.18
2022-10-11T04:01:38.625Z,16.73
2022-10-11T04:04:19.474Z,18.50
2022-10-11T04:07:00.774Z,16.20
2022-10-11T04:09:42.256Z,16.75
2022-10-11T04:12:26.801Z,18.63
2022-10-11T04:15:09.277Z,18.80
2022-10-11T04:17:49.467Z,16.90
2022-10-11T04:20:30.964Z,16.77
2022-10-11T04:23:31.242Z,17.83
2022-10-11T04:26:50.845Z,17.13
2022-10-11T04:29:34.354Z,17.13
2022-10-11T04:32:15.988Z,16.38
2022-10-11T04:34:57.167Z,17.02
2022-10-11T04:37:38.583Z,18.38
2022-10-11T04:40:22.894Z,16.38
2022-10-11T04:43:04.477Z,18.38
2022-10-11T04:45:47.156Z,16.83
2022-10-11T04:48:29.127Z,17.35
2022-10-11T04:51:10.388Z,16.15
2022-10-11T04:53:51.766Z,17.38
2022-10-11T04:56:42.444Z,17.63
2022-10-11T04:59:33.702Z,17.33
2022-10-11T05:02:15.249Z,16.25
2022-10-11T05:05:13.053Z,17.20
2022-10-11T05:07:56.939Z,16.45
2022-10-11T05:10:38.655Z,16.20
2022-10-11T05:13:19.908Z,17.40
2022-10-11T05:16:01.613Z,16.90
2022-10-11T05:18:44.549Z,15.93
2022-10-11T05:21:30.510Z,17.13
2022-10-11T05:24:11.951Z,17.30
2022-10-11T05:27:03.824Z,15.45
2022-10-11T05:29:44.273Z,16.90
2022-10-11T05:32:28.902Z,15.52
2022-10-11T05:35:10.911Z,17.35
2022-10-11T05:38:01.023Z,15.55
2022-10-11T05:40:45.861Z,15.23
2022-10-11T05:43:27.983Z,16.67
2022-10-11T05:46:09.123Z,16.75
2022-10-11T05:48:50.322Z,17.63
2022-10-11T05:51:33.529Z,16.08
2022-10-11T05:54:14.611Z,14.95
2022-10-11T05:56:57.044Z,14.88
2022-10-11T05:59:38.070Z,14.27
2022-10-11T06:02:18.687Z,16.38
2022-10-11T06:05:11.515Z,16.50
2022-10-11T06:07:55.711Z,15.30
2022-10-11T06:10:38.376Z,15.13
2022-10-11T06:13:36.039Z,14.85
2022-10-11T06:16:53.069Z,15.00
2022-10-11T06:19:51.736Z,15.68
2022-10-11T06:23:02.204Z,17.15
2022-10-11T06:26:12.692Z,16.15
2022-10-11T06:29:13.575Z,16.65
2022-10-11T06:32:18.075Z,17.33
2022-10-11T06:35:28.503Z,16.17
2022-10-11T06:38:32.860Z,16.38
2022-10-11T06:41:51.691Z,15.20
2022-10-11T06:45:11.021Z,14.68
2022-10-11T06:48:09.321Z,15.13
2022-10-11T06:51:08.559Z,15.55
2022-10-11T06:54:05.222Z,18.45
2022-10-11T06:57:05.202Z,15.75
2022-10-11T07:00:03.698Z,15.48
2022-10-11T07:03:01.897Z,15.35
2022-10-11T07:06:03.267Z,15.68
2022-10-11T07:09:00.815Z,15.70
2022-10-11T07:11:56.207Z,15.13
2022-10-11T07:14:50.075Z,14.98
2022-10-11T07:17:44.621Z,17.55
2022-10-11T07:20:40.172Z,16.55
2022-10-11T07:23:40.603Z,15.57
2022-10-11T07:26:43.819Z,16.77
2022-10-11T07:29:44.785Z,15.10
2022-10-11T07:32:45.892Z,16.50
2022-10-11T07:35:47.359Z,16.50
2022-10-11T07:38:50.057Z,17.50
2022-10-11T07:41:56.363Z,16.30
2022-10-11T07:45:10.502Z,16.95
2022-10-11T07:48:13.669Z,17.10
2022-10-11T07:51:25.323Z,18.02
2022-10-11T07:54:24.113Z,15.10
2022-10-11T07:57:28.179Z,15.60
2022-10-11T08:00:47.401Z,16.25
2022-10-11T08:03:49.568Z,16.40
2022-10-11T08:06:43.595Z,16.48
2022-10-11T08:09:39.328Z,15.88
2022-10-11T08:12:37.127Z,16.98
2022-10-11T08:15:38.528Z,15.88
2022-10-11T08:18:45.544Z,17.83
2022-10-11T08:21:40.199Z,17.77
2022-10-11T08:24:44.410Z,16.70
2022-10-11T08:27:39.685Z,17.20
2022-10-11T08:30:38.059Z,17.83
2022-10-11T08:33:33.626Z,17.13
2022-10-11T08:36:38.466Z,16.60
2022-10-11T08:39:39.271Z,16.52
2022-10-11T08:42:41.739Z,18.15
2022-10-11T08:45:24.153Z,16.60
2022-10-11T08:48:10.184Z,17.95
2022-10-11T08:50:40.234Z,17.67
2022-10-11T08:53:20.643Z,17.05
2022-10-11T08:55:52.582Z,18.25
2022-10-11T08:58:32.274Z,18.30
2022-10-11T09:01:03.873Z,17.80
2022-10-11T09:03:40.631Z,18.08
2022-10-11T09:06:22.373Z,16.80
2022-10-11T09:09:14.940Z,17.92
2022-10-11T09:12:00.430Z,17.45
2022-10-11T09:14:53.748Z,18.15
2022-10-11T09:17:38.132Z,18.00
2022-10-11T09:20:34.858Z,19.33
2022-10-11T09:23:11.771Z,19.05
2022-10-11T09:25:50.768Z,17.92
2022-10-11T09:28:31.066Z,17.60
2022-10-11T09:31:02.691Z,17.10
2022-10-11T09:33:38.859Z,16.65
2022-10-11T09:36:21.116Z,18.08
2022-10-11T09:38:56.155Z,16.95
2022-10-11T09:41:31.651Z,16.27
2022-10-11T09:44:01.001Z,18.35
2022-10-11T09:46:38.211Z,16.55
2022-10-11T09:49:14.697Z,17.15
2022-10-11T09:51:49.427Z,16.05
2022-10-11T09:54:20.626Z,16.67
2022-10-11T09:56:51.326Z,16.05
2022-10-11T09:59:29.491Z,15.70
2022-10-11T10:02:25.315Z,14.18
2022-10-11T10:05:16.101Z,16.17
2022-10-11T10:08:08.199Z,13.70
2022-10-11T10:10:41.220Z,13.82
2022-10-11T10:13:22.080Z,13.20
2022-10-11T10:15:53.989Z,14.45
2022-10-11T10:18:31.036Z,15.75
2022-10-11T10:21:01.360Z,13.80
2022-10-11T10:23:32.276Z,14.82
2022-10-11T10:26:17.727Z,13.77
2022-10-11T10:29:05.060Z,15.02
2022-10-11T10:32:01.999Z,13.60
2022-10-11T10:34:36.106Z,15.25
2022-10-11T10:37:19.284Z,13.95
2022-10-11T10:39:53.874Z,14.02
2022-10-11T10:42:23.199Z,14.52
2022-10-11T10:44:56.613Z,13.98
2022-10-11T10:47:54.313Z,15.88
2022-10-11T10:50:28.978Z,13.90
2022-10-11T10:53:13.725Z,14.25
2022-10-11T10:55:46.881Z,12.90
2022-10-11T10:58:34.644Z,13.23
2022-10-11T11:01:29.611Z,14.10
2022-10-11T11:04:10.804Z,12.60
2022-10-11T11:06:51.240Z,13.88
2022-10-11T11:09:32.995Z,13.02
2022-10-11T11:12:19.713Z,13.88
2022-10-11T11:15:01.899Z,12.13
2022-10-11T11:17:49.493Z,12.82
2022-10-11T11:20:38.244Z,11.52
2022-10-11T11:23:23.353Z,11.93
2022-10-11T11:26:03.971Z,13.65
2022-10-11T11:28:53.527Z,13.02
2022-10-11T11:31:36.612Z,13.82
2022-10-11T11:34:16.784Z,12.23
2022-10-11T11:36:49.036Z,12.85
2022-10-11T11:39:23.596Z,14.07
2022-10-11T11:41:59.236Z,13.10
2022-10-11T11:44:33.088Z,12.77
2022-10-11T11:47:05.142Z,11.63
2022-10-11T11:49:39.952Z,12.25
2022-10-11T11:52:16.432Z,11.32
2022-10-11T11:54:54.142Z,12.45
2022-10-11T11:57:38.070Z,11.77
2022-10-11T12:00:15.422Z,11.50
2022-10-11T12:02:51.690Z,11.73
2022-10-11T12:05:26.051Z,13.30
2022-10-11T12:07:59.190Z,13.02
2022-10-11T12:10:37.851Z,13.70
2022-10-11T12:13:20.904Z,14.13
2022-10-11T12:16:11.170Z,13.82
2022-10-11T12:18:53.936Z,12.23
2022-10-11T12:21:31.202Z,12.27
2022-10-11T12:24:12.823Z,12.82
2022-10-11T12:26:45.278Z,12.82
2022-10-11T12:29:48.226Z,12.20
2022-10-11T12:32:52.731Z,12.70
2022-10-11T12:35:52.390Z,13.45
2022-10-11T12:38:26.828Z,12.57
2022-10-11T12:41:00.431Z,12.35
2022-10-11T12:43:36.362Z,11.13
2022-10-11T12:46:59.889Z,11.48
2022-10-11T12:50:00.363Z,10.80
2022-10-11T12:52:38.324Z,11.70
2022-10-11T12:55:29.963Z,10.98
2022-10-11T12:58:28.993Z,11.70
2022-10-11T13:01:22.849Z,9.80
2022-10-11T13:04:06.469Z,11.70
2022-10-11T13:06:46.917Z,10.65
2022-10-11T13:09:29.897Z,10.98
2022-10-11T13:12:06.475Z,10.50
2022-10-11T13:14:41.873Z,10.57
2022-10-11T13:17:22.337Z,11.95
2022-10-11T13:20:00.564Z,11.63
2022-10-11T13:22:30.113Z,10.70
2022-10-11T13:24:59.877Z,11.93
2022-10-11T13:27:29.125Z,11.35
2022-10-11T13:30:03.222Z,10.88
2022-10-11T13:32:37.716Z,11.10
2022-10-11T13:35:19.837Z,10.73
2022-10-11T13:37:51.682Z,10.40
2022-10-11T13:40:22.986Z,10.60
2022-10-11T13:42:54.118Z,11.55
2022-10-11T13:45:25.554Z,10.35
2022-10-11T13:47:57.031Z,11.05
2022-10-11T13:50:32.264Z,11.43
2022-10-11T13:53:04.926Z,10.88
2022-10-11T13:55:37.487Z,11.10
2022-10-11T13:58:18.553Z,11.45
2022-10-11T14:00:55.909Z,10.52
2022-10-11T14:03:38.722Z,10.95
2022-10-11T14:06:09.072Z,11.48
2022-10-11T14:08:47.759Z,10.73
2022-10-11T14:11:17.422Z,12.20
2022-10-11T14:13:49.715Z,10.32
2022-10-11T14:16:31.589Z,10.85
2022-10-11T14:19:11.594Z,12.90
2022-10-11T14:21:52.515Z,11.07
2022-10-11T14:24:22.314Z,11.10
2022-10-11T14:26:53.863Z,11.18
2022-10-11T14:29:26.407Z,11.35
2022-10-11T14:32:01.747Z,12.18
2022-10-11T14:34:32.928Z,12.38
2022-10-11T14:37:02.251Z,12.43
2022-10-11T14:39:33.716Z,11.02
2022-10-11T14:42:02.974Z,11.98
2022-10-11T14:44:32.071Z,12.30
2022-10-11T14:47:01.343Z,12.23
2022-10-11T14:49:33.621Z,10.85
2022-10-11T14:52:05.120Z,11.27
2022-10-11T14:54:35.173Z,12.20
2022-10-11T14:57:06.095Z,11.95
2022-10-11T14:59:38.517Z,11.07
2022-10-11T15:02:09.783Z,11.48
2022-10-11T15:04:42.234Z,10.57
2022-10-11T15:07:14.243Z,11.10
2022-10-11T15:09:43.463Z,10.77
2022-10-11T15:12:12.503Z,10.82
2022-10-11T15:14:41.649Z,11.48
2022-10-11T15:17:13.060Z,11.38
2022-10-11T15:19:43.613Z,11.35
2022-10-11T15:22:14.494Z,11.60
2022-10-11T15:24:46.991Z,12.00
2022-10-11T15:27:20.292Z,11.38
2022-10-11T15:29:50.037Z,12.15
2022-10-11T15:32:19.043Z,11.77
2022-10-11T15:34:49.827Z,11.13
2022-10-11T15:37:18.986Z,12.10
2022-10-11T15:39:48.162Z,12.70
2022-10-11T15:42:17.411Z,10.85
2022-10-11T15:44:46.652Z,11.50
2022-10-11T15:47:17.018Z,12.00
2022-10-11T15:49:46.852Z,11.43
2022-10-11T15:52:17.459Z,11.73
2022-10-11T15:54:47.041Z,13.10
2022-10-11T15:57:16.295Z,11.70
2022-10-11T15:59:45.679Z,12.52
2022-10-11T16:02:16.102Z,12.48
2022-10-11T16:04:45.254Z,11.80
2022-10-11T16:07:14.332Z,11.95
2022-10-11T16:09:44.663Z,10.98
2022-10-11T16:12:13.682Z,12.38
2022-10-11T16:14:47.204Z,11.55
2022-10-11T16:17:16.597Z,10.55
2022-10-11T16:19:45.714Z,10.93
2022-10-11T16:22:14.827Z,10.05
2022-10-11T16:24:45.611Z,10.30
2022-10-11T16:27:18.673Z,9.90
2022-10-11T16:29:48.054Z,9.57
2022-10-11T16:32:17.262Z,9.75
2022-10-11T16:34:46.502Z,11.23
2022-10-11T16:37:15.668Z,9.95
2022-10-11T16:39:46.834Z,9.35
2022-10-11T16:42:16.225Z,10.85
2022-10-11T16:44:46.742Z,10.98
2022-10-11T16:47:16.816Z,11.13
2022-10-11T16:49:47.336Z,10.40
2022-10-11T16:52:17.047Z,10.80
2022-10-11T16:54:48.759Z,9.55
2022-10-11T16:57:20.039Z,10.45
2022-10-11T16:59:49.467Z,11.00
2022-10-11T17:02:27.553Z,11.85
2022-10-11T17:04:59.085Z,12.23
2022-10-11T17:07:30.346Z,11.02
2022-10-11T17:10:01.607Z,11.25
2022-10-11T17:12:31.903Z,11.20
2022-10-11T17:15:01.744Z,11.82
2022-10-11T17:17:31.161Z,12.40
2022-10-11T17:20:02.279Z,11.05
2022-10-11T17:22:31.641Z,11.27
2022-10-11T17:25:03.375Z,10.85
2022-10-11T17:27:33.674Z,11.65
2022-10-11T17:30:21.500Z,12.25
2022-10-11T17:33:04.909Z,12.27
2022-10-11T17:35:47.077Z,12.18
2022-10-11T17:38:21.739Z,10.95
2022-10-11T17:41:12.055Z,11.00
2022-10-11T17:43:42.229Z,10.90
2022-10-11T17:46:14.624Z,12.73
2022-10-11T17:48:44.736Z,11.80
2022-10-11T17:51:17.420Z,13.00
2022-10-11T17:53:48.638Z,12.35
2022-10-11T17:56:36.555Z,11.80
2022-10-11T17:59:08.874Z,13.05
2022-10-11T18:01:38.048Z,12.75
2022-10-11T18:04:07.794Z,14.18
2022-10-11T18:06:41.294Z,14.18
2022-10-11T18:09:10.663Z,12.85
2022-10-11T18:11:41.352Z,13.45
2022-10-11T18:14:13.273Z,12.55
2022-10-11T18:16:42.942Z,12.23
2022-10-11T18:19:14.394Z,13.45
2022-10-11T18:21:43.810Z,13.05
2022-10-11T18:24:15.985Z,12.40
2022-10-11T18:26:47.162Z,13.40
2022-10-11T18:29:16.721Z,12.15
2022-10-11T18:31:46.029Z,12.60
2022-10-11T18:34:16.174Z,12.82
2022-10-11T18:36:45.356Z,12.90
2022-10-11T18:39:16.061Z,12.82
2022-10-11T18:41:46.618Z,11.98
2022-10-11T18:44:17.634Z,13.40
2022-10-11T18:46:46.933Z,12.70
2022-10-11T18:49:54.276Z,12.98
2022-10-11T18:52:23.397Z,13.75
2022-10-11T18:54:52.603Z,14.57
2022-10-11T18:57:27.466Z,12.80
2022-10-11T18:59:56.843Z,12.73
2022-10-11T19:02:26.020Z,13.55
2022-10-11T19:04:55.229Z,14.30
2022-10-11T19:07:24.983Z,15.13
2022-10-11T19:09:54.141Z,14.73
2022-10-11T19:12:23.527Z,14.40
2022-10-11T19:14:54.686Z,14.40
2022-10-11T19:17:23.715Z,14.40
2022-10-11T19:19:52.934Z,13.40
2022-10-11T19:22:22.062Z,14.18
2022-10-11T19:24:51.147Z,14.63
2022-10-11T19:27:20.169Z,13.75
2022-10-11T19:29:49.451Z,14.13
2022-10-11T19:32:19.912Z,13.25
2022-10-11T19:34:49.170Z,14.38
2022-10-11T19:37:18.202Z,13.73
2022-10-11T19:39:47.182Z,16.38
2022-10-11T19:42:16.423Z,15.00
2022-10-11T19:44:45.576Z,13.30
2022-10-11T19:47:16.189Z,14.43
2022-10-11T19:49:46.878Z,13.70
2022-10-11T19:52:16.045Z,13.60
2022-10-11T19:54:45.663Z,11.90
2022-10-11T19:57:25.209Z,12.65
2022-10-11T19:59:54.213Z,13.63
2022-10-11T20:02:23.535Z,13.10
2022-10-11T20:04:54.042Z,14.48
2022-10-11T20:07:23.372Z,12.60
2022-10-11T20:09:53.923Z,12.48
2022-10-11T20:12:23.317Z,12.85
2022-10-11T20:14:52.496Z,12.80
2022-10-11T20:17:21.722Z,13.23
2022-10-11T20:19:52.647Z,15.10
2022-10-11T20:22:23.251Z,15.10
2022-10-11T20:24:53.768Z,14.88
2022-10-11T20:27:22.959Z,13.35
2022-10-11T20:29:51.983Z,14.52
2022-10-11T20:32:21.081Z,14.38
2022-10-11T20:34:50.380Z,14.98
2022-10-11T20:37:19.454Z,15.07
2022-10-11T20:39:50.197Z,13.65
2022-10-11T20:42:19.342Z,14.98
2022-10-11T20:44:49.346Z,13.43
2022-10-11T20:47:18.340Z,14.35
2022-10-11T20:49:47.370Z,14.00
2022-10-11T20:52:16.527Z,15.02
2022-10-11T20:54:45.486Z,14.27
2022-10-11T20:57:15.865Z,14.32
2022-10-11T20:59:46.027Z,13.50
2022-10-11T21:02:18.783Z,13.48
2022-10-11T21:04:48.119Z,13.18
2022-10-11T21:07:17.179Z,14.70
2022-10-11T21:09:46.456Z,12.63
2022-10-11T21:12:16.779Z,14.65
2022-10-11T21:14:46.205Z,13.70
2022-10-11T21:17:15.373Z,14.10
2022-10-11T21:19:44.443Z,13.77
2022-10-11T21:22:13.837Z,14.38
2022-10-11T21:24:42.835Z,14.32
2022-10-11T21:27:13.558Z,13.23
2022-10-11T21:29:43.882Z,13.43
2022-10-11T21:32:14.525Z,13.15
2022-10-11T21:34:43.910Z,12.88
2022-10-11T21:37:12.948Z,14.20
2022-10-11T21:39:41.978Z,14.25
2022-10-11T21:42:11.171Z,12.98
2022-10-11T21:44:43.206Z,14.40
2022-10-11T21:47:13.613Z,13.77
2022-10-11T21:49:42.606Z,13.38
2022-10-11T21:52:11.767Z,13.80
2022-10-11T21:54:40.837Z,12.82
2022-10-11T21:57:10.087Z,14.38
2022-10-11T21:59:39.134Z,13.55
2022-10-11T22:02:08.573Z,13.77
2022-10-11T22:04:39.238Z,13.45
2022-10-11T22:07:08.473Z,12.88
2022-10-11T22:09:37.560Z,14.75
2022-10-11T22:12:07.319Z,13.98
2022-10-11T22:14:36.295Z,14.68
2022-10-11T22:17:05.296Z,13.15
2022-10-11T22:19:34.411Z,12.90
2022-10-11T22:22:04.818Z,13.32
2022-10-11T22:24:34.024Z,12.23
2022-10-11T22:27:03.030Z,13.18
2022-10-11T22:29:34.381Z,12.13
2022-10-11T22:32:03.675Z,12.75
2022-10-11T22:34:33.337Z,12.10
2022-10-11T22:37:02.289Z,12.93
2022-10-11T22:39:32.646Z,13.15
2022-10-11T22:42:01.730Z,13.27
2022-10-11T22:44:30.965Z,14.13
2022-10-11T22:47:00.087Z,13.25
2022-10-11T22:49:29.151Z,13.35
2022-10-11T22:51:58.205Z,13.32
2022-10-11T22:54:27.339Z,13.40
2022-10-11T22:56:57.862Z,13.43
2022-10-11T22:59:26.991Z,13.52
2022-10-11T23:01:57.151Z,14.70
2022-10-11T23:04:26.228Z,13.45
2022-10-11T23:06:55.300Z,13.55
2022-10-11T23:09:26.500Z,13.82
2022-10-11T23:11:56.897Z,13.52
2022-10-11T23:14:26.142Z,14.05
2022-10-11T23:16:55.270Z,13.20
2022-10-11T23:19:24.235Z,13.73
2022-10-11T23:21:53.281Z,13.77
2022-10-11T23:24:22.274Z,14.07
2022-10-11T23:26:51.244Z,14.75
2022-10-11T23:29:21.894Z,14.00
2022-10-11T23:31:52.144Z,13.30
2022-10-11T23:34:21.110Z,14.07
2022-10-11T23:36:50.346Z,14.45
2022-10-11T23:39:19.602Z,13.45
2022-10-11T23:41:48.614Z,13.98
2022-10-11T23:44:17.934Z,14.20
2022-10-11T23:46:48.923Z,13.73
2022-10-11T23:49:18.032Z,14.00
2022-10-11T23:51:47.295Z,13.00
2022-10-11T23:54:16.249Z,13.75
2022-10-11T23:56:45.232Z,12.32
2022-10-11T23:59:15.878Z,13.43
